createdAt,value
2022-08-06T00:01:05.346Z,28.6
2022-08-06T00:02:49.036Z,28.6
2022-08-06T00:04:32.751Z,28.6
2022-08-06T00:06:16.446Z,28.6
2022-08-06T00:08:00.160Z,28.6
2022-08-06T00:09:43.853Z,28.6
2022-08-06T00:11:27.553Z,28.6
2022-08-06T00:13:11.252Z,28.6
2022-08-06T00:14:54.966Z,28.6
2022-08-06T00:16:38.660Z,28.6
2022-08-06T00:18:22.364Z,28.6
2022-08-06T00:20:06.067Z,28.6
2022-08-06T00:21:49.766Z,28.6
2022-08-06T00:23:33.474Z,28.6
2022-08-06T00:25:17.172Z,28.6
2022-08-06T00:27:00.887Z,28.6
2022-08-06T00:28:44.591Z,28.6
2022-08-06T00:30:28.285Z,28.6
2022-08-06T00:32:12.051Z,28.6
2022-08-06T00:33:55.770Z,28.6
2022-08-06T00:35:39.394Z,28.6
2022-08-06T00:37:23.093Z,28.6
2022-08-06T00:39:06.793Z,28.6
2022-08-06T00:40:50.614Z,28.6
2022-08-06T00:42:34.210Z,28.6
2022-08-06T00:44:17.947Z,28.6
2022-08-06T00:46:01.609Z,28.6
2022-08-06T00:47:45.313Z,28.6
2022-08-06T00:49:29.070Z,28.6
2022-08-06T00:51:12.757Z,28.6
2022-08-06T00:52:56.422Z,28.6
2022-08-06T00:54:40.105Z,28.6
2022-08-06T00:56:23.812Z,28.6
2022-08-06T00:58:07.543Z,28.6
2022-08-06T00:59:51.214Z,28.6
2022-08-06T01:01:34.919Z,28.6
2022-08-06T01:03:18.630Z,28.6
2022-08-06T01:05:02.319Z,28.6
2022-08-06T01:06:46.022Z,28.6
2022-08-06T01:08:29.736Z,28.6
2022-08-06T01:10:13.422Z,28.6
2022-08-06T01:11:57.131Z,28.6
2022-08-06T01:13:40.826Z,28.5
2022-08-06T01:15:25.746Z,28.6
2022-08-06T01:17:08.229Z,28.6
2022-08-06T01:18:51.931Z,28.6
2022-08-06T01:20:35.633Z,28.6
2022-08-06T01:22:19.330Z,28.5
2022-08-06T01:24:03.043Z,28.6
2022-08-06T01:25:46.744Z,28.5
2022-08-06T01:27:30.432Z,28.5
2022-08-06T01:29:14.147Z,28.5
2022-08-06T01:30:57.887Z,28.5
2022-08-06T01:32:41.540Z,28.5
2022-08-06T01:34:25.267Z,28.5
2022-08-06T01:36:08.950Z,28.5
2022-08-06T01:37:52.673Z,28.5
2022-08-06T01:39:36.359Z,28.5
2022-08-06T01:41:20.053Z,28.5
2022-08-06T01:43:03.758Z,28.4
2022-08-06T01:44:47.467Z,28.3
2022-08-06T01:46:31.158Z,28.2
2022-08-06T01:48:14.875Z,28.1
2022-08-06T01:49:58.582Z,28
2022-08-06T01:51:42.268Z,27.9
2022-08-06T01:53:25.977Z,27.9
2022-08-06T01:55:09.667Z,27.8
2022-08-06T01:56:53.377Z,27.7
2022-08-06T01:58:37.095Z,27.7
2022-08-06T02:00:20.769Z,27.7
2022-08-06T02:02:04.485Z,27.6
2022-08-06T02:03:48.183Z,27.6
2022-08-06T02:05:31.884Z,27.6
2022-08-06T02:07:15.597Z,27.5
2022-08-06T02:08:59.318Z,27.5
2022-08-06T02:10:42.995Z,27.5
2022-08-06T02:12:26.695Z,27.4
2022-08-06T02:14:10.407Z,27.4
2022-08-06T02:15:54.096Z,27.4
2022-08-06T02:17:37.798Z,27.4
2022-08-06T02:19:21.495Z,27.4
2022-08-06T02:21:05.202Z,27.4
2022-08-06T02:22:48.908Z,27.3
2022-08-06T02:24:32.603Z,27.3
2022-08-06T02:26:16.315Z,27.3
2022-08-06T02:28:00.029Z,27.3
2022-08-06T02:29:43.719Z,27.3
2022-08-06T02:31:27.417Z,27.3
2022-08-06T02:33:11.107Z,27.3
2022-08-06T02:34:54.835Z,27.3
2022-08-06T02:36:38.518Z,27.3
2022-08-06T02:38:22.215Z,27.3
2022-08-06T02:40:05.932Z,27.2
2022-08-06T02:41:49.625Z,27.2
2022-08-06T02:43:33.325Z,27.2
2022-08-06T02:45:17.043Z,27.2
2022-08-06T02:47:00.731Z,27.2
2022-08-06T02:48:44.432Z,27.2
2022-08-06T02:50:28.141Z,27.2
2022-08-06T02:52:11.835Z,27.2
2022-08-06T02:53:55.543Z,27.2
2022-08-06T02:55:39.277Z,27.2
2022-08-06T02:57:22.943Z,27.2
2022-08-06T02:59:06.647Z,27.1
2022-08-06T03:00:50.352Z,27.1
2022-08-06T03:02:34.054Z,27.1
2022-08-06T03:04:17.760Z,27.1
2022-08-06T03:06:01.458Z,27.1
2022-08-06T03:07:45.159Z,27.1
2022-08-06T03:09:28.863Z,27.1
2022-08-06T03:11:12.576Z,27
2022-08-06T03:12:56.286Z,27
2022-08-06T03:14:39.972Z,27
2022-08-06T03:16:23.663Z,27
2022-08-06T03:18:07.378Z,27
2022-08-06T03:19:51.071Z,27
2022-08-06T03:21:34.776Z,27
2022-08-06T03:23:18.479Z,27
2022-08-06T03:25:02.174Z,27
2022-08-06T03:26:45.899Z,26.9
2022-08-06T03:28:29.584Z,26.9
2022-08-06T03:30:13.279Z,26.9
2022-08-06T03:31:56.987Z,26.9
2022-08-06T03:33:40.685Z,26.9
2022-08-06T03:35:24.392Z,26.9
2022-08-06T03:37:08.092Z,26.9
2022-08-06T03:38:51.808Z,26.9
2022-08-06T03:40:35.491Z,26.9
2022-08-06T03:42:19.198Z,26.9
2022-08-06T03:44:02.895Z,26.9
2022-08-06T03:45:46.613Z,26.9
2022-08-06T03:47:30.310Z,26.9
2022-08-06T03:49:13.996Z,26.9
2022-08-06T03:50:57.712Z,26.8
2022-08-06T03:52:41.428Z,26.8
2022-08-06T03:54:25.108Z,26.8
2022-08-06T03:56:08.808Z,26.8
2022-08-06T03:57:52.525Z,26.8
2022-08-06T03:59:36.210Z,26.8
2022-08-06T04:01:19.919Z,26.8
2022-08-06T04:03:03.612Z,26.8
2022-08-06T04:04:47.344Z,26.8
2022-08-06T04:06:31.028Z,26.8
2022-08-06T04:08:14.731Z,26.8
2022-08-06T04:09:58.430Z,26.8
2022-08-06T04:11:42.127Z,26.8
2022-08-06T04:13:25.820Z,26.8
2022-08-06T04:15:09.539Z,26.8
2022-08-06T04:16:53.247Z,26.7
2022-08-06T04:18:36.952Z,26.7
2022-08-06T04:20:20.628Z,26.7
2022-08-06T04:22:04.331Z,26.7
2022-08-06T04:23:48.055Z,26.7
2022-08-06T04:25:31.753Z,26.7
2022-08-06T04:28:59.167Z,26.7
2022-08-06T04:30:42.850Z,26.7
2022-08-06T04:32:26.542Z,26.7
2022-08-06T04:34:10.248Z,26.7
2022-08-06T04:35:53.950Z,26.7
2022-08-06T04:37:37.667Z,26.7
2022-08-06T04:39:21.347Z,26.7
2022-08-06T04:41:05.050Z,26.7
2022-08-06T04:42:48.755Z,26.7
2022-08-06T04:44:32.488Z,26.6
2022-08-06T04:46:16.152Z,26.6
2022-08-06T04:47:59.860Z,26.6
2022-08-06T04:49:43.558Z,26.6
2022-08-06T04:51:27.269Z,26.6
2022-08-06T04:53:10.975Z,26.6
2022-08-06T04:54:54.667Z,26.6
2022-08-06T04:56:38.359Z,26.6
2022-08-06T04:58:22.069Z,26.6
2022-08-06T05:00:05.771Z,26.6
2022-08-06T05:01:49.473Z,26.6
2022-08-06T05:03:33.182Z,26.6
2022-08-06T05:05:16.871Z,26.6
2022-08-06T05:07:00.590Z,26.6
2022-08-06T05:08:44.290Z,26.6
2022-08-06T05:10:27.978Z,26.6
2022-08-06T05:12:11.685Z,26.6
2022-08-06T05:13:55.384Z,26.6
2022-08-06T05:15:39.078Z,26.6
2022-08-06T05:17:22.798Z,26.6
2022-08-06T05:19:15.739Z,26.6
2022-08-06T05:20:50.192Z,26.6
2022-08-06T05:22:33.909Z,26.6
2022-08-06T05:24:17.593Z,26.6
2022-08-06T05:26:01.309Z,26.5
2022-08-06T05:27:45.002Z,26.5
2022-08-06T05:29:28.699Z,26.5
2022-08-06T05:31:12.406Z,26.5
2022-08-06T05:32:56.112Z,26.5
2022-08-06T05:36:23.513Z,26.5
2022-08-06T05:38:07.217Z,26.6
2022-08-06T05:39:50.935Z,26.5
2022-08-06T05:41:34.617Z,26.5
2022-08-06T05:43:18.319Z,26.5
2022-08-06T05:45:02.043Z,26.5
2022-08-06T05:46:45.747Z,26.5
2022-08-06T05:48:29.427Z,26.5
2022-08-06T05:50:13.137Z,26.5
2022-08-06T05:51:56.853Z,26.5
2022-08-06T05:53:40.531Z,26.5
2022-08-06T05:55:24.237Z,26.5
2022-08-06T05:57:07.942Z,26.5
2022-08-06T05:58:51.635Z,26.5
2022-08-06T06:00:35.372Z,26.5
2022-08-06T06:04:02.755Z,26.5
2022-08-06T06:05:46.464Z,26.5
2022-08-06T06:07:30.149Z,26.5
2022-08-06T06:09:13.854Z,26.4
2022-08-06T06:10:57.559Z,26.5
2022-08-06T06:12:41.287Z,26.5
2022-08-06T06:14:24.954Z,26.5
2022-08-06T06:17:52.361Z,26.5
2022-08-06T06:19:36.062Z,26.5
2022-08-06T06:21:19.776Z,26.5
2022-08-06T06:23:03.492Z,26.5
2022-08-06T06:24:47.171Z,26.5
2022-08-06T06:26:30.880Z,26.5
2022-08-06T06:28:14.576Z,26.5
2022-08-06T06:29:58.275Z,26.5
2022-08-06T06:33:25.678Z,26.5
2022-08-06T06:35:09.392Z,26.5
2022-08-06T06:36:53.098Z,26.5
2022-08-06T06:38:36.794Z,26.5
2022-08-06T06:40:20.489Z,26.5
2022-08-06T06:42:04.190Z,26.5
2022-08-06T06:43:47.886Z,26.5
2022-08-06T06:47:15.301Z,26.5
2022-08-06T06:48:59.006Z,26.5
2022-08-06T06:50:49.722Z,26.5
2022-08-06T06:52:26.411Z,26.5
2022-08-06T06:54:10.122Z,26.5
2022-08-06T06:55:53.806Z,26.6
2022-08-06T06:57:37.513Z,26.5
2022-08-06T06:59:21.220Z,26.5
2022-08-06T07:01:04.911Z,26.5
2022-08-06T07:02:48.619Z,26.5
2022-08-06T07:04:32.329Z,26.5
2022-08-06T07:06:16.021Z,26.5
2022-08-06T07:07:59.754Z,26.6
2022-08-06T07:09:43.432Z,26.5
2022-08-06T07:11:27.139Z,26.6
2022-08-06T07:13:10.830Z,26.6
2022-08-06T07:14:54.532Z,26.6
2022-08-06T07:16:38.229Z,26.6
2022-08-06T07:18:21.936Z,26.6
2022-08-06T07:21:49.340Z,26.6
2022-08-06T07:23:33.040Z,26.5
2022-08-06T07:25:16.746Z,26.5
2022-08-06T07:27:00.450Z,26.5
2022-08-06T07:28:44.148Z,26.5
2022-08-06T07:30:27.846Z,26.5
2022-08-06T07:32:11.554Z,26.5
2022-08-06T07:33:55.250Z,26.6
2022-08-06T07:35:38.953Z,26.6
2022-08-06T07:37:22.668Z,26.6
2022-08-06T07:39:06.388Z,26.6
2022-08-06T07:40:50.065Z,26.6
2022-08-06T07:42:33.775Z,26.6
2022-08-06T07:44:17.463Z,26.6
2022-08-06T07:46:01.167Z,26.7
2022-08-06T07:47:44.867Z,26.7
2022-08-06T07:49:28.573Z,26.7
2022-08-06T07:51:12.290Z,26.7
2022-08-06T07:52:55.990Z,26.7
2022-08-06T07:54:39.684Z,26.7
2022-08-06T07:56:23.376Z,26.7
2022-08-06T07:58:07.080Z,26.7
2022-08-06T07:59:50.784Z,26.7
2022-08-06T08:01:34.482Z,26.7
2022-08-06T08:05:01.903Z,26.7
2022-08-06T08:06:45.588Z,26.7
2022-08-06T08:08:29.298Z,26.7
2022-08-06T08:10:13.001Z,26.7
2022-08-06T08:11:56.701Z,26.7
2022-08-06T08:13:40.401Z,26.7
2022-08-06T08:15:24.118Z,26.7
2022-08-06T08:17:07.809Z,26.8
2022-08-06T08:18:51.501Z,26.8
2022-08-06T08:20:35.213Z,26.8
2022-08-06T08:22:18.905Z,26.8
2022-08-06T08:24:02.614Z,26.8
2022-08-06T08:25:46.311Z,26.8
2022-08-06T08:27:30.028Z,26.8
2022-08-06T08:29:13.719Z,26.8
2022-08-06T08:30:57.446Z,26.8
2022-08-06T08:32:41.122Z,26.8
2022-08-06T08:34:24.818Z,26.8
2022-08-06T08:36:08.535Z,26.8
2022-08-06T08:37:52.222Z,26.8
2022-08-06T08:39:35.930Z,26.8
2022-08-06T08:41:19.619Z,26.8
2022-08-06T08:43:03.328Z,26.8
2022-08-06T08:44:47.022Z,26.8
2022-08-06T08:46:30.729Z,26.8
2022-08-06T08:48:14.428Z,26.9
2022-08-06T08:49:58.130Z,26.9
2022-08-06T08:51:41.828Z,26.8
2022-08-06T08:53:25.532Z,26.9
2022-08-06T08:55:09.241Z,26.8
2022-08-06T08:56:52.940Z,26.8
2022-08-06T08:58:36.644Z,26.8
2022-08-06T09:00:20.339Z,26.8
2022-08-06T09:02:04.037Z,26.8
2022-08-06T09:03:47.750Z,26.8
2022-08-06T09:05:31.444Z,26.9
2022-08-06T09:07:15.154Z,26.9
2022-08-06T09:08:58.850Z,26.9
2022-08-06T09:10:42.555Z,26.9
2022-08-06T09:12:26.258Z,26.9
2022-08-06T09:14:09.962Z,26.9
2022-08-06T09:15:53.660Z,26.9
2022-08-06T09:17:37.365Z,26.9
2022-08-06T09:19:21.063Z,26.9
2022-08-06T09:21:04.759Z,26.9
2022-08-06T09:22:48.470Z,27
2022-08-06T09:24:32.165Z,27
2022-08-06T09:26:15.871Z,27
2022-08-06T09:27:59.565Z,27.1
2022-08-06T09:29:43.274Z,27.1
2022-08-06T09:31:26.978Z,27.1
2022-08-06T09:33:10.671Z,27.1
2022-08-06T09:34:54.383Z,27.1
2022-08-06T09:36:38.091Z,27
2022-08-06T09:38:21.778Z,27
2022-08-06T09:40:05.481Z,27
2022-08-06T09:41:49.195Z,27
2022-08-06T09:43:32.886Z,27
2022-08-06T09:45:16.595Z,27
2022-08-06T09:47:00.292Z,27
2022-08-06T09:48:43.990Z,27.1
2022-08-06T09:50:27.709Z,27.1
2022-08-06T09:52:11.397Z,27.1
2022-08-06T09:53:55.098Z,27.2
2022-08-06T09:55:38.804Z,27.2
2022-08-06T09:57:22.501Z,27.2
2022-08-06T09:59:06.213Z,27.2
2022-08-06T10:00:49.905Z,27.2
2022-08-06T10:02:33.607Z,27.2
2022-08-06T10:04:17.311Z,27.2
2022-08-06T10:06:01.030Z,27.2
2022-08-06T10:07:46.682Z,27.2
2022-08-06T10:09:28.421Z,27.2
2022-08-06T10:11:12.111Z,27.1
2022-08-06T10:12:55.820Z,27.1
2022-08-06T10:14:39.524Z,27.1
2022-08-06T10:16:23.220Z,27.1
2022-08-06T10:18:06.930Z,27.1
2022-08-06T10:21:34.326Z,27.1
2022-08-06T10:23:18.030Z,27.1
2022-08-06T10:25:01.732Z,27.1
2022-08-06T10:26:45.439Z,27.1
2022-08-06T10:28:29.136Z,27.1
2022-08-06T10:30:12.860Z,27.2
2022-08-06T10:31:56.548Z,27.2
2022-08-06T10:33:40.250Z,27.2
2022-08-06T10:35:23.938Z,27.2
2022-08-06T10:37:07.643Z,27.2
2022-08-06T10:38:51.357Z,27.2
2022-08-06T10:40:35.048Z,27.2
2022-08-06T10:42:18.757Z,27.2
2022-08-06T10:44:02.454Z,27.2
2022-08-06T10:45:46.151Z,27.3
2022-08-06T10:47:29.861Z,27.3
2022-08-06T10:49:13.567Z,27.4
2022-08-06T10:50:57.270Z,27.5
2022-08-06T10:52:40.967Z,27.5
2022-08-06T10:54:24.668Z,27.6
2022-08-06T10:56:08.386Z,27.6
2022-08-06T10:57:52.075Z,27.6
2022-08-06T10:59:35.770Z,27.6
2022-08-06T11:01:19.491Z,27.7
2022-08-06T11:03:03.177Z,27.7
2022-08-06T11:04:46.876Z,27.7
2022-08-06T11:06:30.591Z,27.8
2022-08-06T11:08:14.306Z,27.8
2022-08-06T11:09:57.977Z,27.8
2022-08-06T11:11:41.705Z,27.8
2022-08-06T11:13:25.386Z,27.8
2022-08-06T11:15:09.088Z,27.8
2022-08-06T11:16:52.791Z,27.9
2022-08-06T11:18:36.494Z,27.9
2022-08-06T11:20:20.199Z,27.9
2022-08-06T11:22:03.892Z,27.9
2022-08-06T11:23:47.607Z,27.9
2022-08-06T11:25:31.309Z,27.9
2022-08-06T11:27:14.994Z,27.9
2022-08-06T11:28:58.698Z,27.9
2022-08-06T11:32:26.106Z,27.9
2022-08-06T11:34:09.813Z,28
2022-08-06T11:35:53.513Z,28
2022-08-06T11:37:37.211Z,28
2022-08-06T11:39:20.916Z,28
2022-08-06T11:41:04.638Z,28
2022-08-06T11:42:48.317Z,28
2022-08-06T11:44:32.041Z,28
2022-08-06T11:46:15.721Z,28
2022-08-06T11:47:59.420Z,28
2022-08-06T11:49:43.131Z,28
2022-08-06T11:51:26.824Z,28
2022-08-06T11:53:10.531Z,28
2022-08-06T11:54:54.239Z,28
2022-08-06T11:56:37.945Z,28
2022-08-06T11:58:21.646Z,28
2022-08-06T12:00:05.343Z,28.1
2022-08-06T12:01:49.049Z,28.1
2022-08-06T12:03:32.746Z,28.1
2022-08-06T12:05:16.458Z,28.1
2022-08-06T12:07:00.155Z,28.1
2022-08-06T12:08:43.851Z,28.1
2022-08-06T12:10:27.554Z,28.1
2022-08-06T12:12:11.279Z,28.1
2022-08-06T12:13:54.954Z,28.1
2022-08-06T12:15:38.656Z,28.1
2022-08-06T12:17:22.364Z,28.1
2022-08-06T12:19:06.062Z,28.1
2022-08-06T12:20:49.758Z,28.1
2022-08-06T12:22:33.473Z,28.1
2022-08-06T12:24:17.184Z,28.1
2022-08-06T12:26:00.877Z,28.1
2022-08-06T12:27:44.569Z,28.1
2022-08-06T12:29:28.277Z,28.1
2022-08-06T12:31:11.973Z,28.2
2022-08-06T12:32:55.674Z,28.2
2022-08-06T12:34:39.427Z,28.2
2022-08-06T12:36:23.080Z,28.2
2022-08-06T12:38:06.786Z,28.2
2022-08-06T12:39:50.477Z,28.2
2022-08-06T12:41:34.185Z,28.2
2022-08-06T12:43:17.922Z,28.2
2022-08-06T12:45:01.593Z,28.2
2022-08-06T12:46:45.291Z,28.2
2022-08-06T12:48:29.004Z,28.2
2022-08-06T12:50:12.694Z,28.2
2022-08-06T12:51:56.400Z,28.2
2022-08-06T12:53:40.154Z,28.2
2022-08-06T12:55:23.834Z,28.2
2022-08-06T12:57:07.514Z,28.2
2022-08-06T12:58:51.210Z,28.2
2022-08-06T13:00:34.910Z,28.3
2022-08-06T13:02:18.616Z,28.3
2022-08-06T13:04:02.326Z,28.3
2022-08-06T13:05:46.024Z,28.3
2022-08-06T13:07:29.729Z,28.3
2022-08-06T13:09:13.429Z,28.3
2022-08-06T13:10:57.113Z,28.3
2022-08-06T13:12:40.825Z,28.3
2022-08-06T13:14:24.532Z,28.3
2022-08-06T13:16:08.219Z,28.3
2022-08-06T13:17:51.929Z,28.3
2022-08-06T13:19:35.630Z,28.3
2022-08-06T13:21:19.329Z,28.3
2022-08-06T13:23:03.044Z,28.3
2022-08-06T13:24:46.729Z,28.3
2022-08-06T13:26:30.438Z,28.3
2022-08-06T13:28:14.142Z,28.3
2022-08-06T13:29:57.840Z,28.3
2022-08-06T13:31:41.536Z,28.3
2022-08-06T13:33:25.239Z,28.3
2022-08-06T13:35:08.958Z,28.3
2022-08-06T13:36:52.643Z,28.3
2022-08-06T13:38:36.352Z,28.4
2022-08-06T13:40:20.051Z,28.4
2022-08-06T13:42:03.759Z,28.4
2022-08-06T13:43:47.452Z,28.4
2022-08-06T13:45:31.155Z,28.4
2022-08-06T13:47:14.862Z,28.4
2022-08-06T13:48:58.556Z,28.4
2022-08-06T13:50:42.265Z,28.4
2022-08-06T13:52:25.972Z,28.4
2022-08-06T13:54:09.667Z,28.4
2022-08-06T13:55:53.389Z,28.4
2022-08-06T13:57:37.069Z,28.4
2022-08-06T13:59:20.775Z,28.4
2022-08-06T14:01:04.480Z,28.4
2022-08-06T14:02:48.183Z,28.4
2022-08-06T14:04:31.898Z,28.4
2022-08-06T14:06:15.586Z,28.5
2022-08-06T14:07:59.287Z,28.5
2022-08-06T14:09:42.991Z,28.5
2022-08-06T14:11:26.684Z,28.5
2022-08-06T14:13:10.389Z,28.5
2022-08-06T14:14:54.094Z,28.5
2022-08-06T14:16:37.785Z,28.5
2022-08-06T14:18:21.492Z,28.5
2022-08-06T14:20:05.192Z,28.5
2022-08-06T14:21:48.893Z,28.5
2022-08-06T14:25:16.303Z,28.5
2022-08-06T14:27:00.005Z,28.5
2022-08-06T14:28:43.710Z,28.5
2022-08-06T14:30:27.398Z,28.5
2022-08-06T14:32:11.103Z,28.5
2022-08-06T14:33:54.811Z,28.5
2022-08-06T14:35:38.525Z,28.5
2022-08-06T14:37:22.214Z,28.5
2022-08-06T14:39:05.923Z,28.5
2022-08-06T14:40:49.614Z,28.5
2022-08-06T14:42:33.325Z,28.5
2022-08-06T14:44:17.072Z,28.5
2022-08-06T14:46:00.717Z,28.5
2022-08-06T14:47:44.428Z,28.5
2022-08-06T14:49:28.119Z,28.5
2022-08-06T14:51:11.824Z,28.5
2022-08-06T14:52:55.545Z,28.5
2022-08-06T14:54:39.237Z,28.5
2022-08-06T14:56:22.937Z,28.6
2022-08-06T14:58:06.644Z,28.6
2022-08-06T14:59:50.346Z,28.6
2022-08-06T15:01:34.044Z,28.6
2022-08-06T15:03:17.742Z,28.6
2022-08-06T15:05:01.453Z,28.6
2022-08-06T15:06:45.155Z,28.6
2022-08-06T15:08:28.858Z,28.6
2022-08-06T15:10:12.551Z,28.6
2022-08-06T15:11:56.263Z,28.6
2022-08-06T15:13:39.947Z,28.6
2022-08-06T15:15:23.673Z,28.6
2022-08-06T15:17:07.350Z,28.6
2022-08-06T15:18:51.060Z,28.6
2022-08-06T15:20:34.789Z,28.5
2022-08-06T15:22:18.453Z,28.5
2022-08-06T15:24:02.173Z,28.5
2022-08-06T15:25:45.855Z,28.5
2022-08-06T15:27:29.559Z,28.5
2022-08-06T15:29:13.269Z,28.5
2022-08-06T15:30:56.964Z,28.4
2022-08-06T15:32:40.663Z,28.4
2022-08-06T15:34:24.372Z,28.4
2022-08-06T15:36:08.077Z,28.5
2022-08-06T15:37:51.791Z,28.5
2022-08-06T15:39:35.473Z,28.4
2022-08-06T15:41:19.193Z,28.4
2022-08-06T15:43:02.901Z,28.4
2022-08-06T15:44:46.591Z,28.5
2022-08-06T15:46:30.283Z,28.5
2022-08-06T15:48:13.995Z,28.5
2022-08-06T15:49:57.686Z,28.5
2022-08-06T15:51:41.383Z,28.4
2022-08-06T15:53:25.092Z,28.4
2022-08-06T15:55:08.802Z,28.4
2022-08-06T15:56:52.511Z,28.4
2022-08-06T15:58:36.205Z,28.4
2022-08-06T16:00:19.899Z,28.4
2022-08-06T16:02:03.612Z,28.4
2022-08-06T16:03:47.298Z,28.4
2022-08-06T16:05:31.013Z,28.5
2022-08-06T16:07:14.711Z,28.5
2022-08-06T16:08:58.403Z,28.5
2022-08-06T16:10:42.114Z,28.5
2022-08-06T16:12:25.806Z,28.6
2022-08-06T16:14:09.514Z,28.6
2022-08-06T16:15:53.230Z,28.6
2022-08-06T16:17:36.920Z,28.6
2022-08-06T16:19:20.631Z,28.7
2022-08-06T16:21:04.345Z,28.7
2022-08-06T16:22:48.020Z,28.7
2022-08-06T16:24:31.732Z,28.7
2022-08-06T16:26:15.459Z,28.7
2022-08-06T16:27:59.123Z,28.7
2022-08-06T16:29:42.848Z,28.7
2022-08-06T16:31:26.549Z,28.7
2022-08-06T16:33:10.250Z,28.6
2022-08-06T16:34:53.969Z,28.6
2022-08-06T16:36:37.636Z,28.5
2022-08-06T16:38:21.337Z,28.5
2022-08-06T16:40:05.044Z,28.5
2022-08-06T16:41:48.742Z,28.5
2022-08-06T16:43:32.450Z,28.5
2022-08-06T16:45:16.150Z,28.5
2022-08-06T16:46:59.849Z,28.4
2022-08-06T16:48:43.548Z,28.4
2022-08-06T16:50:27.247Z,28.4
2022-08-06T16:52:10.954Z,28.4
2022-08-06T16:53:54.657Z,28.5
2022-08-06T16:55:38.361Z,28.5
2022-08-06T16:57:22.066Z,28.6
2022-08-06T16:59:05.763Z,28.6
2022-08-06T17:00:49.454Z,28.6
2022-08-06T17:02:33.157Z,28.6
2022-08-06T17:04:16.905Z,28.7
2022-08-06T17:06:00.595Z,28.7
2022-08-06T17:07:44.271Z,28.7
2022-08-06T17:09:27.974Z,28.7
2022-08-06T17:11:11.676Z,28.7
2022-08-06T17:12:55.379Z,28.8
2022-08-06T17:14:39.079Z,28.8
2022-08-06T17:16:22.783Z,28.8
2022-08-06T17:18:06.521Z,28.9
2022-08-06T17:19:50.189Z,28.9
2022-08-06T17:21:33.875Z,28.8
2022-08-06T17:23:17.588Z,28.8
2022-08-06T17:25:01.287Z,28.7
2022-08-06T17:26:44.987Z,28.7
2022-08-06T17:28:28.688Z,28.7
2022-08-06T17:30:12.399Z,28.7
2022-08-06T17:31:56.092Z,28.7
2022-08-06T17:33:39.793Z,28.7
2022-08-06T17:35:23.504Z,28.7
2022-08-06T17:37:07.209Z,28.7
2022-08-06T17:38:50.895Z,28.7
2022-08-06T17:40:34.600Z,28.7
2022-08-06T17:42:18.312Z,28.7
2022-08-06T17:44:02.029Z,28.8
2022-08-06T17:45:45.705Z,28.8
2022-08-06T17:47:29.418Z,28.8
2022-08-06T17:49:13.132Z,28.7
2022-08-06T17:50:56.839Z,28.8
2022-08-06T17:52:40.519Z,28.7
2022-08-06T17:54:24.222Z,28.7
2022-08-06T17:56:07.932Z,28.7
2022-08-06T17:57:51.621Z,28.7
2022-08-06T17:59:35.323Z,28.7
2022-08-06T18:01:19.032Z,28.7
2022-08-06T18:03:02.734Z,28.7
2022-08-06T18:04:46.450Z,28.7
2022-08-06T18:06:30.128Z,28.6
2022-08-06T18:08:13.838Z,28.6
2022-08-06T18:09:57.537Z,28.6
2022-08-06T18:11:41.233Z,28.6
2022-08-06T18:13:24.939Z,28.6
2022-08-06T18:15:08.649Z,28.6
2022-08-06T18:16:52.354Z,28.6
2022-08-06T18:18:36.053Z,28.5
2022-08-06T18:20:19.757Z,28.5
2022-08-06T18:22:03.464Z,28.5
2022-08-06T18:23:47.165Z,28.5
2022-08-06T18:25:30.873Z,28.5
2022-08-06T18:27:14.566Z,28.4
2022-08-06T18:28:58.268Z,28.4
2022-08-06T18:30:41.960Z,28.3
2022-08-06T18:32:25.666Z,28.3
2022-08-06T18:34:09.489Z,28.3
2022-08-06T18:35:53.060Z,28.2
2022-08-06T18:37:36.767Z,28.2
2022-08-06T18:39:20.474Z,28.1
2022-08-06T18:41:04.198Z,28.1
2022-08-06T18:42:47.915Z,28.1
2022-08-06T18:44:31.592Z,28
2022-08-06T18:46:15.286Z,28
2022-08-06T18:47:59.020Z,28
2022-08-06T18:49:42.697Z,27.9
2022-08-06T18:51:26.397Z,27.9
2022-08-06T18:53:10.098Z,27.9
2022-08-06T18:54:53.806Z,27.9
2022-08-06T18:56:37.495Z,27.9
2022-08-06T18:58:21.214Z,27.9
2022-08-06T19:00:04.898Z,27.8
2022-08-06T19:01:48.625Z,27.8
2022-08-06T19:03:32.294Z,27.8
2022-08-06T19:05:16.026Z,27.7
2022-08-06T19:06:59.706Z,27.7
2022-08-06T19:08:43.404Z,27.7
2022-08-06T19:10:27.125Z,27.7
2022-08-06T19:12:10.822Z,27.7
2022-08-06T19:13:54.509Z,27.6
2022-08-06T19:15:38.208Z,27.6
2022-08-06T19:17:21.939Z,27.6
2022-08-06T19:19:05.624Z,27.5
2022-08-06T19:20:49.323Z,27.5
2022-08-06T19:22:33.018Z,27.5
2022-08-06T19:24:16.721Z,27.5
2022-08-06T19:26:00.432Z,27.5
2022-08-06T19:27:44.119Z,27.5
2022-08-06T19:29:27.850Z,27.5
2022-08-06T19:31:11.533Z,27.5
2022-08-06T19:32:55.234Z,27.5
2022-08-06T19:34:38.969Z,27.5
2022-08-06T19:36:22.647Z,27.5
2022-08-06T19:38:06.368Z,27.5
2022-08-06T19:39:50.047Z,27.5
2022-08-06T19:41:33.746Z,27.5
2022-08-06T19:43:17.449Z,27.5
2022-08-06T19:45:01.183Z,27.5
2022-08-06T19:46:44.859Z,27.5
2022-08-06T19:48:28.553Z,27.5
2022-08-06T19:50:12.259Z,27.5
2022-08-06T19:51:55.961Z,27.5
2022-08-06T19:53:39.673Z,27.5
2022-08-06T19:55:23.371Z,27.4
2022-08-06T19:57:07.067Z,27.4
2022-08-06T19:58:50.771Z,27.4
2022-08-06T20:00:34.463Z,27.4
2022-08-06T20:02:18.164Z,27.4
2022-08-06T20:04:01.876Z,27.4
2022-08-06T20:05:45.578Z,27.3
2022-08-06T20:07:29.272Z,27.3
2022-08-06T20:09:12.980Z,27.3
2022-08-06T20:10:56.702Z,27.3
2022-08-06T20:12:40.418Z,27.3
2022-08-06T20:14:24.084Z,27.3
2022-08-06T20:16:07.799Z,27.3
2022-08-06T20:17:51.513Z,27.3
2022-08-06T20:19:35.180Z,27.3
2022-08-06T20:21:18.886Z,27.2
2022-08-06T20:23:02.593Z,27.2
2022-08-06T20:24:46.319Z,27.2
2022-08-06T20:26:29.985Z,27.2
2022-08-06T20:28:13.697Z,27.2
2022-08-06T20:29:57.394Z,27.2
2022-08-06T20:31:41.097Z,27.2
2022-08-06T20:33:24.798Z,27.2
2022-08-06T20:35:08.526Z,27.2
2022-08-06T20:36:52.206Z,27.2
2022-08-06T20:38:35.904Z,27.2
2022-08-06T20:40:19.601Z,27.2
2022-08-06T20:42:03.309Z,27.1
2022-08-06T20:43:47.020Z,27.1
2022-08-06T20:45:30.708Z,27.1
2022-08-06T20:47:14.438Z,27.1
2022-08-06T20:48:58.117Z,27.1
2022-08-06T20:50:41.828Z,27.1
2022-08-06T20:52:25.522Z,27.1
2022-08-06T20:54:09.230Z,27.1
2022-08-06T20:55:52.930Z,27.1
2022-08-06T20:57:36.636Z,27
2022-08-06T20:59:20.330Z,27.1
2022-08-06T21:01:04.041Z,27
2022-08-06T21:02:47.722Z,27.1
2022-08-06T21:04:31.427Z,27
2022-08-06T21:06:15.135Z,27
2022-08-06T21:07:58.861Z,27
2022-08-06T21:09:42.550Z,27
2022-08-06T21:11:26.238Z,27
2022-08-06T21:13:09.949Z,27
2022-08-06T21:14:53.650Z,26.9
2022-08-06T21:16:37.341Z,26.9
2022-08-06T21:18:21.056Z,26.9
2022-08-06T21:20:04.755Z,26.9
2022-08-06T21:21:48.468Z,26.9
2022-08-06T21:23:32.153Z,26.8
2022-08-06T21:25:15.858Z,26.8
2022-08-06T21:26:59.583Z,26.8
2022-08-06T21:28:43.272Z,26.8
2022-08-06T21:30:26.957Z,26.8
2022-08-06T21:32:10.660Z,26.8
2022-08-06T21:33:54.380Z,26.8
2022-08-06T21:35:38.070Z,26.8
2022-08-06T21:37:21.789Z,26.7
2022-08-06T21:39:05.480Z,26.7
2022-08-06T21:40:49.175Z,26.7
2022-08-06T21:42:32.898Z,26.7
2022-08-06T21:44:16.600Z,26.7
2022-08-06T21:46:00.277Z,26.7
2022-08-06T21:47:43.989Z,26.6
2022-08-06T21:49:27.693Z,26.6
2022-08-06T21:51:11.382Z,26.6
2022-08-06T21:52:55.089Z,26.6
2022-08-06T21:54:38.810Z,26.6
2022-08-06T21:56:22.492Z,26.6
2022-08-06T21:58:06.205Z,26.6
2022-08-06T21:59:49.926Z,26.5
2022-08-06T22:01:33.600Z,26.5
2022-08-06T22:03:17.308Z,26.5
2022-08-06T22:05:00.999Z,26.5
2022-08-06T22:06:44.709Z,26.5
2022-08-06T22:08:28.411Z,26.5
2022-08-06T22:10:12.109Z,26.5
2022-08-06T22:11:55.807Z,26.5
2022-08-06T22:13:39.523Z,26.5
2022-08-06T22:15:23.210Z,26.5
2022-08-06T22:17:06.934Z,26.4
2022-08-06T22:18:50.632Z,26.4
2022-08-06T22:20:34.325Z,26.4
2022-08-06T22:22:18.021Z,26.4
2022-08-06T22:24:01.751Z,26.4
2022-08-06T22:25:45.430Z,26.4
2022-08-06T22:27:29.130Z,26.4
2022-08-06T22:29:12.831Z,26.4
2022-08-06T22:30:56.553Z,26.3
2022-08-06T22:32:40.239Z,26.3
2022-08-06T22:36:07.631Z,26.3
2022-08-06T22:37:51.337Z,26.3
2022-08-06T22:39:35.038Z,26.3
2022-08-06T22:41:18.750Z,26.3
2022-08-06T22:43:02.458Z,26.5
2022-08-06T22:46:29.865Z,26.7
2022-08-06T22:48:13.560Z,26.8
2022-08-06T22:49:57.255Z,26.8
2022-08-06T22:51:40.953Z,26.9
2022-08-06T22:53:24.658Z,26.9
2022-08-06T22:55:08.359Z,27
2022-08-06T22:56:52.083Z,27
2022-08-06T22:58:35.753Z,27.1
2022-08-06T23:00:19.465Z,27.1
2022-08-06T23:02:03.161Z,27.1
2022-08-06T23:03:46.880Z,27.2
2022-08-06T23:05:30.590Z,27.2
2022-08-06T23:07:14.287Z,27.2
2022-08-06T23:08:57.974Z,27.2
2022-08-06T23:10:41.680Z,27.2
2022-08-06T23:12:25.379Z,27.3
2022-08-06T23:14:09.102Z,27.3
2022-08-06T23:15:52.803Z,27.3
2022-08-06T23:17:36.473Z,27.3
2022-08-06T23:19:20.195Z,27.3
2022-08-06T23:21:03.886Z,27.3
2022-08-06T23:22:47.600Z,27.3
2022-08-06T23:24:31.295Z,27.3
2022-08-06T23:26:15.012Z,27.3
2022-08-06T23:27:58.697Z,27.3